Time;durP1;ratioP1;P1;durP2;ratioP2;P2;SDS_P1;SDS_P2;PMS_P1;PMS_P2;Temp;Humidity;BMP_temperature;BMP_pressure;BME280_temperature;BME280_humidity;BME280_pressure;Samples;Min_cycle;Max_cycle;Signal;HPM_P1;HPM_P2
2023/07/20 00:02:22;;;;;;;8.90;4.80;;;;;;;16.80;100.00;101254.53;5284451;28;20015;-69
2023/07/20 00:04:53;;;;;;;10.35;4.90;;;;;;;16.72;100.00;101254.41;5316052;27;20473;-68
2023/07/20 00:07:25;;;;;;;9.77;5.28;;;;;;;16.67;100.00;101252.16;5284643;28;20109;-69
2023/07/20 00:09:57;;;;;;;10.00;5.18;;;;;;;16.74;100.00;101247.03;5282360;28;20393;-68
2023/07/20 00:12:28;;;;;;;10.30;5.63;;;;;;;16.72;100.00;101246.34;5283675;28;20028;-68
2023/07/20 00:14:59;;;;;;;9.52;5.05;;;;;;;16.71;100.00;101250.00;5288015;28;20028;-69
2023/07/20 00:17:31;;;;;;;11.48;5.45;;;;;;;16.69;100.00;101256.56;5279670;28;20146;-68
2023/07/20 00:20:05;;;;;;;11.65;5.80;;;;;;;16.67;100.00;101244.06;5281686;28;20788;-68
2023/07/20 00:22:36;;;;;;;10.55;5.05;;;;;;;16.55;100.00;101253.34;5283166;28;20442;-68
2023/07/20 00:25:08;;;;;;;8.48;4.95;;;;;;;16.59;100.00;101257.44;5283361;28;20089;-68
2023/07/20 00:27:39;;;;;;;9.98;5.47;;;;;;;16.65;100.00;101259.53;5282400;28;20396;-68
2023/07/20 00:30:11;;;;;;;12.93;6.00;;;;;;;16.61;100.00;101262.69;5280721;28;20118;-68
2023/07/20 00:32:43;;;;;;;12.30;5.82;;;;;;;16.61;100.00;101259.97;5288626;28;20019;-69
2023/07/20 00:35:14;;;;;;;10.85;5.80;;;;;;;16.60;100.00;101258.28;5287792;28;20558;-68
2023/07/20 00:37:46;;;;;;;9.85;5.60;;;;;;;16.60;100.00;101252.88;5286017;28;20031;-68
2023/07/20 00:40:17;;;;;;;10.38;5.53;;;;;;;16.53;100.00;101249.94;5280521;28;20047;-68
2023/07/20 00:42:49;;;;;;;12.55;5.85;;;;;;;16.48;100.00;101254.91;5282368;28;20532;-69
2023/07/20 00:45:20;;;;;;;10.45;5.68;;;;;;;16.42;100.00;101255.50;5281784;28;21592;-68
2023/07/20 00:47:52;;;;;;;11.52;6.07;;;;;;;16.36;100.00;101259.63;5283250;28;20455;-68
2023/07/20 00:50:25;;;;;;;13.55;6.35;;;;;;;16.34;100.00;101255.34;5280093;28;20028;-69
2023/07/20 00:52:58;;;;;;;11.43;5.72;;;;;;;16.37;100.00;101260.47;5287805;28;20111;-69
2023/07/20 00:55:29;;;;;;;10.63;6.18;;;;;;;16.34;100.00;101258.03;5285972;28;20397;-69
2023/07/20 00:58:01;;;;;;;11.95;6.28;;;;;;;16.19;100.00;101255.81;5286944;28;20020;-68
2023/07/20 01:00:32;;;;;;;11.70;6.38;;;;;;;16.26;100.00;101251.56;5287035;28;20029;-68
2023/07/20 01:03:04;;;;;;;12.07;6.75;;;;;;;16.25;100.00;101249.84;5291694;28;20023;-68
2023/07/20 01:05:54;;;;;;;10.32;5.95;;;;;;;16.20;100.00;101257.53;5295087;28;20462;-68
2023/07/20 01:08:38;;;;;;;12.82;6.15;;;;;;;16.26;100.00;101264.16;5288632;28;20051;-69
2023/07/20 01:11:32;;;;;;;12.18;6.32;;;;;;;16.15;100.00;101257.09;5287914;28;20775;-69
2023/07/20 01:14:05;;;;;;;14.10;6.20;;;;;;;16.11;100.00;101260.22;5294454;28;20020;-69
2023/07/20 01:16:36;;;;;;;12.13;6.40;;;;;;;16.10;100.00;101263.91;5294320;28;20029;-69
2023/07/20 01:19:07;;;;;;;10.55;5.85;;;;;;;16.06;100.00;101264.19;5291591;28;20051;-68
2023/07/20 01:21:53;;;;;;;13.10;6.72;;;;;;;16.02;100.00;101264.63;5295947;28;20039;-69
2023/07/20 01:24:49;;;;;;;12.18;6.15;;;;;;;16.02;100.00;101270.84;5287840;28;20134;-68
2023/07/20 01:27:30;;;;;;;9.73;6.45;;;;;;;15.98;100.00;101268.59;5286604;28;20363;-68
2023/07/20 01:30:12;;;;;;;13.90;7.13;;;;;;;16.10;100.00;101272.81;5285657;28;20033;-68
2023/07/20 01:32:46;;;;;;;12.35;6.75;;;;;;;15.98;100.00;101274.81;5296041;28;20117;-68
2023/07/20 01:35:21;;;;;;;11.57;6.25;;;;;;;15.92;100.00;101267.31;5289058;28;20032;-69
2023/07/20 01:37:53;;;;;;;13.10;6.93;;;;;;;15.97;100.00;101274.97;5287052;28;20031;-69
2023/07/20 01:40:25;;;;;;;13.15;6.95;;;;;;;15.92;100.00;101269.16;5295241;28;20103;-69
2023/07/20 01:42:57;;;;;;;14.10;7.30;;;;;;;15.97;100.00;101273.09;5291052;28;20365;-69
2023/07/20 01:45:28;;;;;;;14.43;7.28;;;;;;;15.99;100.00;101275.66;5278636;28;20024;-68
2023/07/20 01:47:59;;;;;;;13.40;6.82;;;;;;;16.02;100.00;101270.00;5292297;28;20020;-69
2023/07/20 01:50:31;;;;;;;13.45;7.22;;;;;;;16.02;100.00;101276.22;5287566;28;20035;-68
2023/07/20 01:53:02;;;;;;;13.52;6.80;;;;;;;15.99;100.00;101278.34;5294952;28;20066;-69
2023/07/20 01:55:34;;;;;;;12.85;7.10;;;;;;;16.01;100.00;101279.06;5291372;28;20371;-69
2023/07/20 01:58:06;;;;;;;18.50;7.43;;;;;;;15.94;100.00;101278.78;5292706;28;20028;-69
2023/07/20 02:00:38;;;;;;;14.45;7.45;;;;;;;15.98;100.00;101279.38;5291138;28;20029;-69
2023/07/20 02:03:11;;;;;;;13.68;7.57;;;;;;;16.07;100.00;101281.19;5292762;28;20023;-68
2023/07/20 02:05:43;;;;;;;15.13;8.13;;;;;;;16.15;100.00;101291.25;5293366;28;20058;-69
2023/07/20 02:08:15;;;;;;;15.52;8.02;;;;;;;16.12;100.00;101291.53;5290512;28;20131;-69
2023/07/20 02:10:48;;;;;;;13.95;8.05;;;;;;;16.12;100.00;101295.06;5298883;28;20904;-69
2023/07/20 02:13:19;;;;;;;15.90;8.25;;;;;;;16.12;100.00;101289.69;5289505;28;20427;-69
2023/07/20 02:15:51;;;;;;;13.18;8.32;;;;;;;16.19;100.00;101295.38;5289056;28;20057;-68
2023/07/20 02:18:22;;;;;;;13.23;8.02;;;;;;;16.16;100.00;101292.94;5290360;28;20035;-68
2023/07/20 02:20:54;;;;;;;12.48;8.15;;;;;;;16.14;100.00;101298.47;5286981;28;20059;-68
2023/07/20 02:23:25;;;;;;;15.63;8.70;;;;;;;16.18;100.00;101296.34;5286380;28;20056;-69
2023/07/20 02:25:57;;;;;;;16.35;8.93;;;;;;;16.16;100.00;101293.78;5285051;28;21433;-68
2023/07/20 02:28:28;;;;;;;15.23;9.43;;;;;;;16.18;100.00;101302.56;5291862;28;20030;-68
2023/07/20 02:31:00;;;;;;;17.05;10.00;;;;;;;16.18;100.00;101305.25;5285396;28;20032;-68
2023/07/20 02:33:31;;;;;;;17.73;9.50;;;;;;;16.24;100.00;101302.03;5291287;28;20031;-69
2023/07/20 02:36:03;;;;;;;14.30;10.48;;;;;;;16.18;100.00;101307.94;5288866;28;20629;-69
2023/07/20 02:38:34;;;;;;;17.58;10.90;;;;;;;16.18;100.00;101313.34;5288880;28;20020;-69
2023/07/20 02:41:06;;;;;;;15.85;10.85;;;;;;;16.17;100.00;101319.72;5287691;28;20024;-68
2023/07/20 02:43:37;;;;;;;15.25;10.55;;;;;;;16.18;100.00;101310.63;5297174;28;20053;-69
2023/07/20 02:46:08;;;;;;;17.30;12.18;;;;;;;16.15;100.00;101312.78;5291535;28;20063;-69
2023/07/20 02:48:40;;;;;;;16.55;11.18;;;;;;;16.21;100.00;101310.38;5292701;28;20036;-68
2023/07/20 02:51:12;;;;;;;15.95;12.18;;;;;;;16.26;100.00;101316.19;5291721;28;20027;-68
2023/07/20 02:53:43;;;;;;;19.02;12.52;;;;;;;16.22;100.00;101314.78;5284737;28;20120;-69
2023/07/20 02:56:15;;;;;;;17.60;12.40;;;;;;;16.27;100.00;101320.56;5283484;28;20027;-69
2023/07/20 02:58:46;;;;;;;17.20;13.02;;;;;;;16.23;100.00;101321.84;5285474;28;20016;-69
2023/07/20 03:01:18;;;;;;;18.90;13.07;;;;;;;16.24;100.00;101328.06;5283882;28;20024;-68
2023/07/20 03:03:49;;;;;;;19.38;14.23;;;;;;;16.22;100.00;101332.75;5281544;28;20034;-69
2023/07/20 03:06:21;;;;;;;18.60;13.40;;;;;;;16.21;100.00;101329.22;5293541;28;20023;-69
2023/07/20 03:08:53;;;;;;;18.67;14.35;;;;;;;16.16;100.00;101336.00;5288239;28;20221;-69
2023/07/20 03:11:24;;;;;;;17.83;13.57;;;;;;;16.18;100.00;101332.19;5283178;28;20201;-69
2023/07/20 03:13:55;;;;;;;15.52;13.50;;;;;;;16.26;100.00;101332.34;5282520;28;20034;-69
2023/07/20 03:16:27;;;;;;;16.38;13.20;;;;;;;16.24;100.00;101333.47;5289054;28;20035;-69
2023/07/20 03:19:00;;;;;;;19.75;15.07;;;;;;;16.21;100.00;101337.28;5294701;28;20032;-69
2023/07/20 03:21:31;;;;;;;19.43;15.23;;;;;;;16.24;100.00;101344.22;5287630;28;20031;-69
2023/07/20 03:24:03;;;;;;;16.60;13.98;;;;;;;16.18;100.00;101350.19;5284725;28;20562;-69
2023/07/20 03:26:36;;;;;;;20.30;14.60;;;;;;;16.13;100.00;101350.63;5284804;28;20684;-69
2023/07/20 03:29:08;;;;;;;18.85;14.40;;;;;;;16.10;100.00;101341.97;5283066;28;20073;-69
2023/07/20 03:31:40;;;;;;;18.15;14.05;;;;;;;16.02;100.00;101342.69;5283580;28;20389;-69
2023/07/20 03:34:11;;;;;;;15.75;13.38;;;;;;;15.96;100.00;101343.25;5283431;28;20085;-68
2023/07/20 03:36:43;;;;;;;16.25;13.77;;;;;;;15.92;100.00;101342.66;5288688;28;20136;-69
2023/07/20 03:39:14;;;;;;;18.02;13.95;;;;;;;15.91;100.00;101349.03;5281476;28;20028;-68
2023/07/20 03:41:46;;;;;;;18.77;14.07;;;;;;;15.90;100.00;101347.34;5285472;28;20024;-69
2023/07/20 03:44:17;;;;;;;19.35;14.60;;;;;;;15.86;100.00;101357.53;5278978;28;20027;-69
2023/07/20 03:46:48;;;;;;;19.10;14.77;;;;;;;15.87;100.00;101353.00;5284574;28;20031;-68
2023/07/20 03:49:20;;;;;;;19.90;14.98;;;;;;;15.85;100.00;101350.44;5283262;28;20498;-70
2023/07/20 03:51:51;;;;;;;20.25;14.88;;;;;;;15.82;100.00;101353.44;5284833;28;20562;-69
2023/07/20 03:54:23;;;;;;;20.13;15.80;;;;;;;15.77;100.00;101357.53;5284972;28;20129;-69
2023/07/20 03:56:54;;;;;;;20.98;15.48;;;;;;;15.70;100.00;101367.94;5289275;28;20028;-69
2023/07/20 03:59:26;;;;;;;17.63;14.70;;;;;;;15.70;100.00;101359.88;5288802;28;20488;-68
2023/07/20 04:01:58;;;;;;;17.95;15.63;;;;;;;15.83;100.00;101367.72;5282522;28;20036;-68
2023/07/20 04:04:29;;;;;;;16.45;13.10;;;;;;;15.72;100.00;101365.13;5281857;28;20375;-69
2023/07/20 04:07:00;;;;;;;16.75;14.55;;;;;;;15.74;100.00;101371.25;5279566;28;20135;-69
2023/07/20 04:09:32;;;;;;;15.05;13.38;;;;;;;15.69;100.00;101375.16;5283345;28;20043;-69
2023/07/20 04:12:03;;;;;;;14.80;12.80;;;;;;;15.67;100.00;101374.47;5290821;28;20032;-69
2023/07/20 04:14:35;;;;;;;13.82;11.65;;;;;;;15.68;100.00;101368.06;5283277;28;20078;-69
2023/07/20 04:17:06;;;;;;;14.35;12.70;;;;;;;15.66;100.00;101374.59;5281537;28;20051;-69
2023/07/20 04:19:38;;;;;;;15.13;12.05;;;;;;;15.74;100.00;101374.78;5287385;28;20031;-69
2023/07/20 04:22:09;;;;;;;13.80;10.95;;;;;;;15.71;100.00;101376.88;5282746;28;20024;-68
2023/07/20 04:24:42;;;;;;;15.90;12.00;;;;;;;15.63;100.00;101370.34;5280411;28;20035;-68
2023/07/20 04:27:13;;;;;;;15.73;11.20;;;;;;;15.64;100.00;101372.03;5286632;28;20111;-69
2023/07/20 04:29:45;;;;;;;15.13;11.65;;;;;;;15.60;100.00;101362.53;5290219;28;20383;-68
2023/07/20 04:32:16;;;;;;;17.83;11.77;;;;;;;15.73;100.00;101369.53;5290013;28;20032;-68
2023/07/20 04:34:48;;;;;;;14.50;11.07;;;;;;;15.56;100.00;101377.25;5288537;28;20036;-69
2023/07/20 04:37:19;;;;;;;14.65;11.82;;;;;;;15.56;100.00;101373.72;5287439;28;20470;-68
2023/07/20 04:39:50;;;;;;;14.05;11.60;;;;;;;15.59;100.00;101370.72;5285922;28;20068;-68
2023/07/20 04:42:22;;;;;;;18.88;12.50;;;;;;;15.60;100.00;101373.28;5289153;28;20032;-69
2023/07/20 04:44:53;;;;;;;15.02;12.73;;;;;;;15.62;100.00;101378.53;5284363;28;20070;-69
2023/07/20 04:47:25;;;;;;;16.20;13.25;;;;;;;15.57;100.00;101375.41;5288320;28;20028;-69
2023/07/20 04:49:56;;;;;;;19.25;14.65;;;;;;;15.58;100.00;101377.97;5287599;28;20383;-69
2023/07/20 04:52:27;;;;;;;19.52;14.90;;;;;;;15.56;100.00;101381.78;5293363;28;20103;-69
2023/07/20 04:54:59;;;;;;;17.85;14.75;;;;;;;15.48;100.00;101372.56;5284272;28;20032;-69
2023/07/20 04:57:30;;;;;;;18.70;15.55;;;;;;;15.51;100.00;101379.50;5291378;28;20028;-69
2023/07/20 05:00:03;;;;;;;17.90;15.93;;;;;;;15.47;100.00;101376.25;5284999;28;20047;-69
2023/07/20 05:02:34;;;;;;;18.98;16.50;;;;;;;15.40;100.00;101374.25;5286516;28;20112;-69
2023/07/20 05:05:06;;;;;;;18.00;16.02;;;;;;;15.39;100.00;101367.16;5284409;28;20036;-69
2023/07/20 05:07:37;;;;;;;21.67;17.00;;;;;;;15.36;100.00;101357.53;5300513;28;20045;-69
2023/07/20 05:10:09;;;;;;;23.83;18.10;;;;;;;15.43;100.00;101361.34;5286455;28;20028;-69
2023/07/20 05:12:41;;;;;;;21.10;18.20;;;;;;;15.39;100.00;101367.16;5288407;28;20027;-69
2023/07/20 05:15:12;;;;;;;21.30;17.98;;;;;;;15.43;100.00;101365.88;5285383;28;20044;-69
2023/07/20 05:17:44;;;;;;;22.27;17.75;;;;;;;15.28;100.00;101370.78;5291731;28;20035;-69
2023/07/20 05:20:16;;;;;;;22.33;17.25;;;;;;;15.32;100.00;101377.56;5285863;28;20083;-69
2023/07/20 05:22:48;;;;;;;20.30;16.85;;;;;;;15.29;100.00;101380.56;5277238;28;20024;-69
2023/07/20 05:25:22;;;;;;;21.83;17.77;;;;;;;15.44;100.00;101379.19;5288011;28;20097;-69
2023/07/20 05:27:55;;;;;;;;;;;;;;;15.54;100.00;101379.22;5285924;27;20066;-69
2023/07/20 05:30:26;;;;;;;20.42;16.08;;;;;;;15.39;100.00;101385.97;5291849;28;20273;-69
2023/07/20 05:32:57;;;;;;;17.58;14.65;;;;;;;15.42;100.00;101383.03;5288025;28;20024;-69
2023/07/20 05:35:29;;;;;;;17.95;15.43;;;;;;;15.39;100.00;101392.19;5290600;28;20065;-68
2023/07/20 05:38:00;;;;;;;18.45;15.02;;;;;;;15.46;100.00;101387.13;5290406;28;20016;-69
2023/07/20 05:40:32;;;;;;;20.02;14.18;;;;;;;15.49;100.00;101382.34;5284291;28;20043;-69
2023/07/20 05:43:03;;;;;;;17.85;14.32;;;;;;;15.51;100.00;101392.94;5290597;28;20039;-69
2023/07/20 05:45:35;;;;;;;17.52;13.80;;;;;;;15.40;100.00;101398.44;5283984;28;22320;-69
2023/07/20 05:48:06;;;;;;;14.32;12.40;;;;;;;15.52;100.00;101400.03;5286107;28;20020;-68
2023/07/20 05:50:42;;;;;;;15.18;12.52;;;;;;;15.53;100.00;101399.03;5287088;28;20084;-68
2023/07/20 05:53:13;;;;;;;13.15;10.68;;;;;;;15.58;100.00;101394.09;5282796;28;20024;-69
2023/07/20 05:55:51;;;;;;;14.63;11.35;;;;;;;15.62;100.00;101392.84;5280393;28;20436;-69
2023/07/20 05:58:23;;;;;;;14.18;10.82;;;;;;;15.69;100.00;101398.53;5284279;28;20058;-69
2023/07/20 06:00:54;;;;;;;11.85;10.40;;;;;;;15.69;100.00;101404.75;5289322;28;20056;-68
2023/07/20 06:03:26;;;;;;;12.13;10.07;;;;;;;15.73;100.00;101401.81;5284488;28;20024;-69
2023/07/20 06:06:01;;;;;;;11.48;9.50;;;;;;;15.78;100.00;101404.94;5286088;28;20035;-69
2023/07/20 06:08:33;;;;;;;10.98;8.40;;;;;;;15.75;100.00;101389.94;5285860;28;21257;-69
2023/07/20 06:11:04;;;;;;;11.77;9.40;;;;;;;15.83;100.00;101398.16;5281050;28;20028;-69
2023/07/20 06:13:36;;;;;;;11.10;8.75;;;;;;;15.84;100.00;101397.19;5275981;28;20308;-68
2023/07/20 06:16:07;;;;;;;12.68;9.27;;;;;;;15.82;100.00;101403.69;5292547;28;20054;-69
2023/07/20 06:18:38;;;;;;;11.00;8.80;;;;;;;15.94;100.00;101393.69;5281303;28;20024;-69
2023/07/20 06:21:10;;;;;;;11.15;9.10;;;;;;;16.02;100.00;101397.34;5293961;28;20024;-69
2023/07/20 06:23:42;;;;;;;10.75;7.90;;;;;;;16.04;100.00;101408.00;5295539;28;20111;-69
2023/07/20 06:26:13;;;;;;;9.40;8.30;;;;;;;16.07;100.00;101408.56;5295461;28;20505;-69
2023/07/20 06:28:44;;;;;;;11.65;9.40;;;;;;;16.09;100.00;101416.50;5290180;28;20028;-69
2023/07/20 06:31:16;;;;;;;13.38;10.57;;;;;;;16.15;100.00;101413.25;5288879;28;20524;-69
2023/07/20 06:33:48;;;;;;;11.57;10.38;;;;;;;16.24;100.00;101403.47;5286865;28;20030;-69
2023/07/20 06:36:19;;;;;;;12.10;10.73;;;;;;;16.31;100.00;101411.84;5286294;28;20023;-69
2023/07/20 06:38:51;;;;;;;12.95;10.73;;;;;;;16.37;100.00;101403.19;5289047;28;20304;-69
2023/07/20 06:41:22;;;;;;;12.30;10.60;;;;;;;16.44;100.00;101404.34;5288453;28;20024;-69
2023/07/20 06:43:57;;;;;;;11.57;9.27;;;;;;;16.44;100.00;101391.72;5280414;28;20031;-69
2023/07/20 06:46:29;;;;;;;14.32;10.90;;;;;;;16.50;100.00;101397.53;5314585;27;20109;-69
2023/07/20 06:49:00;;;;;;;13.50;11.57;;;;;;;16.57;100.00;101396.81;5286846;28;20557;-69
2023/07/20 06:51:32;;;;;;;11.57;10.32;;;;;;;16.57;100.00;101386.03;5294138;28;20024;-69
2023/07/20 06:54:04;;;;;;;12.02;9.25;;;;;;;16.71;100.00;101395.53;5279026;28;20142;-69
2023/07/20 06:56:36;;;;;;;10.73;8.18;;;;;;;16.89;100.00;101401.03;5304119;28;20040;-69
2023/07/20 06:59:07;;;;;;;8.35;6.88;;;;;;;17.00;100.00;101400.03;5292463;28;20466;-69
2023/07/20 07:01:39;;;;;;;6.80;5.68;;;;;;;17.14;100.00;101409.50;5283070;28;20489;-69
2023/07/20 07:04:10;;;;;;;6.55;5.07;;;;;;;17.23;100.00;101405.91;5291577;28;20024;-69
2023/07/20 07:06:42;;;;;;;6.25;4.63;;;;;;;17.36;100.00;101411.84;5280664;28;20035;-69
2023/07/20 07:09:13;;;;;;;6.97;4.57;;;;;;;17.40;100.00;101401.59;5287021;28;20040;-69
2023/07/20 07:11:45;;;;;;;6.22;4.50;;;;;;;17.46;100.00;101411.78;5282775;28;20032;-69
2023/07/20 07:14:16;;;;;;;7.25;5.15;;;;;;;17.44;100.00;101409.25;5297366;28;20042;-69
2023/07/20 07:55:10;;;;;;;5.22;3.22;;;;;;;18.61;100.00;101419.31;5287256;28;20035;-69
2023/07/20 08:08:05;;;;;;;2.78;1.05;;;;;;;18.82;100.00;101411.91;5301209;28;20047;-69
2023/07/20 08:10:36;;;;;;;2.42;0.80;;;;;;;18.91;100.00;101416.38;5306256;28;20035;-71
2023/07/20 08:13:08;;;;;;;2.58;1.40;;;;;;;18.90;100.00;101414.66;5310349;28;20028;-69
2023/07/20 08:15:39;;;;;;;2.88;1.30;;;;;;;18.99;100.00;101427.25;5312573;28;20111;-70
2023/07/20 08:18:11;;;;;;;3.28;1.20;;;;;;;18.91;100.00;101414.50;5309013;28;20681;-69
2023/07/20 08:20:46;;;;;;;2.05;0.65;;;;;;;19.03;100.00;101416.97;5310866;28;20027;-69
2023/07/20 08:23:17;;;;;;;2.55;0.60;;;;;;;18.98;100.00;101421.00;5304317;28;20031;-70
2023/07/20 08:25:48;;;;;;;1.65;0.70;;;;;;;19.02;100.00;101426.91;5308373;28;20031;-70
2023/07/20 08:28:20;;;;;;;2.25;0.70;;;;;;;19.05;100.00;101420.34;5318100;28;20553;-70
2023/07/20 08:30:51;;;;;;;2.42;0.82;;;;;;;19.06;100.00;101422.03;5313111;28;20432;-70
2023/07/20 08:33:23;;;;;;;1.85;0.70;;;;;;;19.40;100.00;101422.91;5308068;28;20035;-70
2023/07/20 08:35:56;;;;;;;3.10;0.75;;;;;;;19.45;100.00;101418.91;5313141;28;20068;-70
2023/07/20 08:38:27;;;;;;;1.65;0.50;;;;;;;19.37;100.00;101420.53;5309730;28;20095;-70
2023/07/20 08:40:59;;;;;;;1.70;0.55;;;;;;;19.18;100.00;101418.06;5317354;28;20118;-70
2023/07/20 08:43:33;;;;;;;2.28;0.52;;;;;;;19.24;100.00;101416.59;5312795;28;20028;-70
2023/07/20 08:46:04;;;;;;;1.67;0.50;;;;;;;19.16;100.00;101406.56;5305774;28;20028;-70
2023/07/20 08:48:36;;;;;;;4.18;0.70;;;;;;;19.17;100.00;101410.94;5309116;28;20023;-70
2023/07/20 08:51:08;;;;;;;2.45;0.88;;;;;;;19.21;100.00;101409.63;5299713;28;20042;-71
2023/07/20 08:53:39;;;;;;;1.63;0.60;;;;;;;19.27;100.00;101402.72;5309837;28;20065;-75
2023/07/20 08:56:12;;;;;;;2.00;0.70;;;;;;;19.42;100.00;101405.66;5313828;28;20350;-71
2023/07/20 08:58:45;;;;;;;2.70;0.60;;;;;;;19.57;100.00;101409.47;5315026;28;20030;-75
2023/07/20 09:01:18;;;;;;;2.88;0.90;;;;;;;19.62;100.00;101407.13;5310735;28;20034;-73
2023/07/20 09:03:50;;;;;;;3.45;1.10;;;;;;;19.94;100.00;101409.13;5303907;28;20454;-75
2023/07/20 09:06:21;;;;;;;1.73;0.60;;;;;;;20.11;100.00;101409.16;5305502;28;20058;-74
2023/07/20 09:08:53;;;;;;;2.83;0.70;;;;;;;20.21;100.00;101399.00;5310473;28;20485;-73
2023/07/20 09:11:24;;;;;;;2.33;1.10;;;;;;;20.20;100.00;101404.63;5306469;28;20028;-72
2023/07/20 09:14:10;;;;;;;1.83;0.70;;;;;;;20.53;100.00;101400.88;5309429;28;20031;-71
2023/07/20 09:16:48;;;;;;;2.17;0.70;;;;;;;20.62;100.00;101404.50;5314723;27;20458;-70
2023/07/20 09:19:21;;;;;;;2.08;0.60;;;;;;;20.77;100.00;101407.38;5303356;28;21958;-67
2023/07/20 09:21:52;;;;;;;1.70;0.60;;;;;;;20.91;100.00;101395.81;5314716;28;20047;-67
2023/07/20 09:24:25;;;;;;;1.40;0.60;;;;;;;20.90;100.00;101388.72;5313882;28;20028;-67
2023/07/20 09:26:56;;;;;;;2.97;0.70;;;;;;;21.04;100.00;101392.59;5316983;28;20019;-67
2023/07/20 09:29:28;;;;;;;1.08;0.38;;;;;;;21.07;100.00;101392.22;5315915;28;20062;-67
2023/07/20 09:32:03;;;;;;;1.55;0.50;;;;;;;20.99;100.00;101399.53;5328373;27;20130;-67
2023/07/20 09:34:35;;;;;;;1.55;0.70;;;;;;;20.86;100.00;101390.06;5314321;27;20023;-67
2023/07/20 09:37:06;;;;;;;3.13;0.70;;;;;;;20.80;100.00;101390.75;5320038;28;20382;-68
2023/07/20 09:39:45;;;;;;;1.75;0.60;;;;;;;20.74;100.00;101380.59;5319238;28;20073;-67
2023/07/20 09:42:17;;;;;;;4.00;0.93;;;;;;;20.62;100.00;101385.53;5316336;28;20028;-67
2023/07/20 09:44:50;;;;;;;2.50;1.00;;;;;;;20.45;100.00;101390.06;5315415;27;20028;-67
2023/07/20 09:47:23;;;;;;;3.22;0.80;;;;;;;20.34;100.00;101395.81;5312886;28;20092;-67
2023/07/20 09:50:01;;;;;;;2.90;0.80;;;;;;;20.28;100.00;101393.78;5310078;28;20024;-67
2023/07/20 09:52:34;;;;;;;3.10;1.17;;;;;;;20.14;100.00;101390.72;5316319;28;20361;-67
2023/07/20 09:55:06;;;;;;;3.88;0.80;;;;;;;20.18;100.00;101389.34;5311888;28;20035;-67
2023/07/20 09:57:38;;;;;;;3.28;0.90;;;;;;;20.16;100.00;101388.69;5316649;28;20118;-67
2023/07/20 10:00:14;;;;;;;2.45;0.82;;;;;;;20.09;100.00;101387.63;5306812;28;20054;-67
2023/07/20 10:02:46;;;;;;;1.75;0.70;;;;;;;19.98;100.00;101383.41;5312267;28;20028;-67
2023/07/20 10:05:18;;;;;;;2.40;0.60;;;;;;;19.91;100.00;101390.50;5309868;28;20112;-67
2023/07/20 10:07:52;;;;;;;1.42;0.80;;;;;;;19.98;100.00;101386.13;5316981;27;20051;-67
2023/07/20 10:10:24;;;;;;;1.98;0.68;;;;;;;19.96;100.00;101387.28;5309919;27;20134;-68
2023/07/20 10:12:58;;;;;;;2.70;0.80;;;;;;;20.11;100.00;101382.06;5308172;28;20056;-67
2023/07/20 10:15:34;;;;;;;;;;;;;;;20.36;100.00;101382.94;5314389;28;20468;-67
2023/07/20 10:18:29;;;;;;;4.45;0.98;;;;;;;20.36;100.00;101377.50;5312949;28;20349;-67
2023/07/20 10:21:01;;;;;;;2.10;0.60;;;;;;;20.52;100.00;101382.94;5309945;28;20027;-67
2023/07/20 10:23:34;;;;;;;2.70;0.60;;;;;;;20.50;100.00;101374.16;5317389;27;20084;-67
2023/07/20 10:26:05;;;;;;;3.08;0.80;;;;;;;20.54;100.00;101375.50;5308941;28;20032;-71
2023/07/20 10:28:38;;;;;;;2.20;1.00;;;;;;;20.67;100.00;101368.72;5314321;28;20039;-70
2023/07/20 10:31:11;;;;;;;3.72;0.60;;;;;;;20.91;100.00;101365.97;5308941;28;20039;-70
2023/07/20 10:33:43;;;;;;;2.33;1.00;;;;;;;20.99;100.00;101367.00;5313562;28;20027;-71
2023/07/20 10:36:15;;;;;;;1.80;0.70;;;;;;;20.93;100.00;101363.94;5317276;28;20110;-71
2023/07/20 10:38:46;;;;;;;2.40;0.60;;;;;;;21.00;100.00;101374.97;5308904;28;20025;-71
2023/07/20 10:41:27;;;;;;;1.67;0.50;;;;;;;20.98;100.00;101360.72;5312129;27;20035;-71
2023/07/20 10:44:01;;;;;;;1.35;0.52;;;;;;;21.11;100.00;101366.47;5314022;28;20027;-70
2023/07/20 10:46:39;;;;;;;1.52;0.43;;;;;;;21.14;100.00;101359.81;5301879;28;20055;-71
2023/07/20 10:49:11;;;;;;;1.50;0.80;;;;;;;21.25;100.00;101362.16;5283371;28;20316;-71
2023/07/20 10:51:47;;;;;;;3.00;0.60;;;;;;;21.29;100.00;101355.34;5309832;28;20074;-71
2023/07/20 10:54:19;;;;;;;1.70;0.55;;;;;;;21.44;100.00;101351.94;5312819;28;20088;-71
2023/07/20 10:56:51;;;;;;;2.97;1.00;;;;;;;21.49;100.00;101349.53;5313033;28;20519;-71
2023/07/20 10:59:25;;;;;;;4.57;0.90;;;;;;;21.42;100.00;101353.94;5311578;27;20031;-71
2023/07/20 11:02:01;;;;;;;2.20;0.57;;;;;;;21.45;100.00;101350.91;5311191;28;20035;-71
2023/07/20 11:04:43;;;;;;;2.03;0.60;;;;;;;21.51;100.00;101351.03;5310059;28;20024;-71
2023/07/20 11:07:37;;;;;;;1.70;0.55;;;;;;;21.53;100.00;101353.59;5309476;28;20025;-71
2023/07/20 11:10:15;;;;;;;1.88;0.68;;;;;;;21.49;100.00;101355.81;5307281;28;20069;-71
2023/07/20 11:13:21;;;;;;;2.22;0.77;;;;;;;21.57;100.00;101348.66;5316497;28;20023;-70
2023/07/20 11:15:58;;;;;;;1.73;0.60;;;;;;;21.52;100.00;101352.75;5305214;27;20112;-71
2023/07/20 11:18:30;;;;;;;1.42;0.52;;;;;;;21.49;100.00;101346.81;5310794;28;20504;-70
2023/07/20 11:21:02;;;;;;;2.05;0.60;;;;;;;21.56;100.00;101350.53;5316532;28;20024;-71
2023/07/20 11:23:34;;;;;;;2.30;0.52;;;;;;;21.51;100.00;101351.03;5320370;27;20054;-70
2023/07/20 11:26:05;;;;;;;2.35;0.52;;;;;;;21.48;100.00;101348.69;5307250;28;20457;-71
2023/07/20 11:28:37;;;;;;;1.88;0.60;;;;;;;21.68;100.00;101338.22;5316032;28;20122;-71
2023/07/20 11:31:08;;;;;;;2.00;0.70;;;;;;;21.76;100.00;101344.66;5317064;27;20389;-71
2023/07/20 11:33:39;;;;;;;1.63;0.60;;;;;;;21.62;100.00;101325.38;5307578;28;20031;-71
2023/07/20 11:36:11;;;;;;;3.45;0.60;;;;;;;21.78;100.00;101324.41;5311675;28;20045;-71
2023/07/20 11:38:45;;;;;;;2.47;0.52;;;;;;;21.87;100.00;101330.66;5315981;28;20080;-71
2023/07/20 11:41:17;;;;;;;3.28;0.77;;;;;;;21.76;100.00;101336.50;5308771;28;20040;-71
2023/07/20 11:43:48;;;;;;;2.45;0.70;;;;;;;21.77;100.00;101335.50;5312280;28;20083;-71
2023/07/20 11:46:20;;;;;;;1.45;0.60;;;;;;;21.61;100.00;101330.97;5314947;28;20020;-71
2023/07/20 11:48:58;;;;;;;3.08;0.70;;;;;;;21.65;100.00;101326.88;5310086;28;20027;-71
2023/07/20 11:51:31;;;;;;;3.97;0.82;;;;;;;21.66;100.00;101326.69;5316082;28;20026;-71
2023/07/20 11:54:03;;;;;;;2.35;0.80;;;;;;;21.53;100.00;101329.16;5316090;28;20027;-71
2023/07/20 11:56:34;;;;;;;1.50;0.60;;;;;;;21.38;100.00;101334.44;5311250;28;20068;-72
2023/07/20 11:59:06;;;;;;;2.08;0.70;;;;;;;21.46;100.00;101331.75;5315123;28;20023;-71
2023/07/20 12:01:37;;;;;;;2.38;0.70;;;;;;;21.37;100.00;101330.06;5309494;28;20027;-70
2023/07/20 12:04:09;;;;;;;2.22;0.85;;;;;;;21.42;100.00;101332.22;5313838;28;20037;-71
2023/07/20 12:06:40;;;;;;;3.22;0.80;;;;;;;21.43;100.00;101325.78;5313514;28;20024;-71
2023/07/20 12:09:16;;;;;;;2.30;0.73;;;;;;;21.55;100.00;101316.25;5307342;28;20047;-71
2023/07/20 12:11:49;;;;;;;3.95;0.90;;;;;;;21.66;100.00;101325.88;5305306;28;20162;-71
2023/07/20 12:14:25;;;;;;;2.43;0.87;;;;;;;21.74;100.00;101315.78;5292415;28;20028;-71
2023/07/20 12:16:56;;;;;;;1.60;0.80;;;;;;;21.80;100.00;101303.34;5306603;28;20286;-71
2023/07/20 12:19:28;;;;;;;1.63;0.70;;;;;;;21.85;100.00;101295.50;5289516;28;20034;-70
2023/07/20 12:22:00;;;;;;;3.70;0.98;;;;;;;21.89;100.00;101315.03;5304230;28;20397;-71
2023/07/20 12:24:32;;;;;;;3.03;0.90;;;;;;;21.75;100.00;101311.22;5304296;28;20584;-71